sensor_id;sensor_type;location;lat;lon;timestamp;P1;durP1;ratioP1;P2;durP2;ratioP2
75358;SDS011;64046;51.978;5.934;2023-02-23T00:00:40;70.13;;;32.80;;
75358;SDS011;64046;51.978;5.934;2023-02-23T00:03:10;70.03;;;32.40;;
75358;SDS011;64046;51.978;5.934;2023-02-23T00:05:39;84.25;;;40.53;;
75358;SDS011;64046;51.978;5.934;2023-02-23T00:08:08;83.88;;;38.42;;
75358;SDS011;64046;51.978;5.934;2023-02-23T00:10:37;87.47;;;40.63;;
75358;SDS011;64046;51.978;5.934;2023-02-23T00:13:07;80.72;;;38.53;;
75358;SDS011;64046;51.978;5.934;2023-02-23T00:15:38;72.82;;;33.72;;
75358;SDS011;64046;51.978;5.934;2023-02-23T00:18:07;94.07;;;41.70;;
75358;SDS011;64046;51.978;5.934;2023-02-23T00:20:39;85.68;;;39.47;;
75358;SDS011;64046;51.978;5.934;2023-02-23T00:23:12;81.38;;;38.33;;
75358;SDS011;64046;51.978;5.934;2023-02-23T00:25:42;83.68;;;36.83;;
75358;SDS011;64046;51.978;5.934;2023-02-23T00:28:11;68.95;;;33.20;;
75358;SDS011;64046;51.978;5.934;2023-02-23T00:30:43;77.68;;;36.03;;
75358;SDS011;64046;51.978;5.934;2023-02-23T00:33:13;76.50;;;36.05;;
75358;SDS011;64046;51.978;5.934;2023-02-23T00:35:42;72.03;;;36.55;;
75358;SDS011;64046;51.978;5.934;2023-02-23T00:38:12;83.32;;;39.33;;
75358;SDS011;64046;51.978;5.934;2023-02-23T00:40:42;68.78;;;33.13;;
75358;SDS011;64046;51.978;5.934;2023-02-23T00:43:11;78.78;;;36.90;;
75358;SDS011;64046;51.978;5.934;2023-02-23T00:45:45;69.10;;;33.05;;
75358;SDS011;64046;51.978;5.934;2023-02-23T00:48:15;61.90;;;29.98;;
75358;SDS011;64046;51.978;5.934;2023-02-23T00:50:44;63.13;;;31.77;;
75358;SDS011;64046;51.978;5.934;2023-02-23T00:53:15;60.85;;;30.73;;
75358;SDS011;64046;51.978;5.934;2023-02-23T00:55:44;73.90;;;31.20;;
75358;SDS011;64046;51.978;5.934;2023-02-23T00:58:13;86.60;;;35.05;;
75358;SDS011;64046;51.978;5.934;2023-02-23T01:00:43;63.42;;;32.20;;
75358;SDS011;64046;51.978;5.934;2023-02-23T01:03:14;63.80;;;32.53;;
75358;SDS011;64046;51.978;5.934;2023-02-23T01:05:44;66.45;;;32.75;;
75358;SDS011;64046;51.978;5.934;2023-02-23T01:08:14;72.50;;;35.58;;
75358;SDS011;64046;51.978;5.934;2023-02-23T01:10:44;64.30;;;32.28;;
75358;SDS011;64046;51.978;5.934;2023-02-23T01:13:18;69.05;;;32.03;;
75358;SDS011;64046;51.978;5.934;2023-02-23T01:15:52;62.33;;;30.10;;
75358;SDS011;64046;51.978;5.934;2023-02-23T01:18:24;75.35;;;35.78;;
75358;SDS011;64046;51.978;5.934;2023-02-23T01:20:53;69.57;;;32.33;;
75358;SDS011;64046;51.978;5.934;2023-02-23T01:23:23;77.60;;;35.97;;
75358;SDS011;64046;51.978;5.934;2023-02-23T01:25:52;77.53;;;36.03;;
75358;SDS011;64046;51.978;5.934;2023-02-23T01:28:23;68.60;;;32.60;;
75358;SDS011;64046;51.978;5.934;2023-02-23T01:30:55;71.72;;;35.20;;
75358;SDS011;64046;51.978;5.934;2023-02-23T01:33:24;77.57;;;36.05;;
75358;SDS011;64046;51.978;5.934;2023-02-23T01:35:56;71.18;;;35.17;;
75358;SDS011;64046;51.978;5.934;2023-02-23T01:38:26;72.88;;;33.45;;
75358;SDS011;64046;51.978;5.934;2023-02-23T01:40:55;68.32;;;33.60;;
75358;SDS011;64046;51.978;5.934;2023-02-23T01:43:24;72.50;;;35.38;;
75358;SDS011;64046;51.978;5.934;2023-02-23T01:45:56;76.63;;;35.75;;
75358;SDS011;64046;51.978;5.934;2023-02-23T01:48:26;71.78;;;34.58;;
75358;SDS011;64046;51.978;5.934;2023-02-23T01:50:59;69.78;;;35.03;;
75358;SDS011;64046;51.978;5.934;2023-02-23T01:53:34;80.72;;;37.72;;
75358;SDS011;64046;51.978;5.934;2023-02-23T01:56:08;74.00;;;33.75;;
75358;SDS011;64046;51.978;5.934;2023-02-23T01:58:41;73.63;;;33.17;;
75358;SDS011;64046;51.978;5.934;2023-02-23T02:01:19;70.00;;;31.48;;
75358;SDS011;64046;51.978;5.934;2023-02-23T02:03:50;61.35;;;30.70;;
75358;SDS011;64046;51.978;5.934;2023-02-23T02:06:24;71.28;;;34.75;;
75358;SDS011;64046;51.978;5.934;2023-02-23T02:08:56;69.22;;;31.25;;
75358;SDS011;64046;51.978;5.934;2023-02-23T02:11:31;72.05;;;34.38;;
75358;SDS011;64046;51.978;5.934;2023-02-23T02:14:04;55.95;;;28.17;;
75358;SDS011;64046;51.978;5.934;2023-02-23T02:16:46;53.90;;;27.60;;
75358;SDS011;64046;51.978;5.934;2023-02-23T02:19:45;63.47;;;29.85;;
75358;SDS011;64046;51.978;5.934;2023-02-23T02:22:51;66.18;;;32.05;;
75358;SDS011;64046;51.978;5.934;2023-02-23T02:25:52;65.28;;;32.40;;
75358;SDS011;64046;51.978;5.934;2023-02-23T02:28:29;68.60;;;32.83;;
75358;SDS011;64046;51.978;5.934;2023-02-23T02:34:34;70.45;;;34.33;;
75358;SDS011;64046;51.978;5.934;2023-02-23T02:40:26;72.28;;;34.53;;
75358;SDS011;64046;51.978;5.934;2023-02-23T02:43:04;63.95;;;32.72;;
75358;SDS011;64046;51.978;5.934;2023-02-23T02:45:43;72.82;;;35.28;;
75358;SDS011;64046;51.978;5.934;2023-02-23T02:48:22;60.75;;;30.08;;
75358;SDS011;64046;51.978;5.934;2023-02-23T02:51:03;69.43;;;32.83;;
75358;SDS011;64046;51.978;5.934;2023-02-23T02:53:43;69.47;;;32.22;;
75358;SDS011;64046;51.978;5.934;2023-02-23T02:56:22;71.68;;;31.08;;
75358;SDS011;64046;51.978;5.934;2023-02-23T02:58:54;55.40;;;26.88;;
75358;SDS011;64046;51.978;5.934;2023-02-23T03:01:24;54.25;;;27.27;;
75358;SDS011;64046;51.978;5.934;2023-02-23T03:04:18;55.35;;;29.55;;
75358;SDS011;64046;51.978;5.934;2023-02-23T03:07:03;75.18;;;34.53;;
75358;SDS011;64046;51.978;5.934;2023-02-23T03:09:52;59.33;;;29.85;;
75358;SDS011;64046;51.978;5.934;2023-02-23T03:12:42;59.90;;;30.50;;
75358;SDS011;64046;51.978;5.934;2023-02-23T03:15:35;69.35;;;32.83;;
75358;SDS011;64046;51.978;5.934;2023-02-23T03:18:36;72.03;;;35.75;;
75358;SDS011;64046;51.978;5.934;2023-02-23T03:21:26;55.63;;;25.63;;
75358;SDS011;64046;51.978;5.934;2023-02-23T03:24:14;69.47;;;32.80;;
75358;SDS011;64046;51.978;5.934;2023-02-23T03:27:04;58.80;;;28.85;;
75358;SDS011;64046;51.978;5.934;2023-02-23T03:29:59;68.10;;;32.70;;
75358;SDS011;64046;51.978;5.934;2023-02-23T03:32:47;61.90;;;31.60;;
75358;SDS011;64046;51.978;5.934;2023-02-23T03:35:33;70.35;;;33.70;;
75358;SDS011;64046;51.978;5.934;2023-02-23T03:38:26;59.83;;;28.33;;
75358;SDS011;64046;51.978;5.934;2023-02-23T03:41:13;64.88;;;32.38;;
75358;SDS011;64046;51.978;5.934;2023-02-23T03:43:57;60.80;;;30.30;;
75358;SDS011;64046;51.978;5.934;2023-02-23T03:46:47;68.10;;;32.25;;
75358;SDS011;64046;51.978;5.934;2023-02-23T03:49:33;51.28;;;27.45;;
75358;SDS011;64046;51.978;5.934;2023-02-23T03:52:17;63.17;;;30.98;;
75358;SDS011;64046;51.978;5.934;2023-02-23T03:55:04;57.50;;;29.45;;
75358;SDS011;64046;51.978;5.934;2023-02-23T03:57:51;66.40;;;32.80;;
75358;SDS011;64046;51.978;5.934;2023-02-23T04:00:38;62.30;;;30.23;;
75358;SDS011;64046;51.978;5.934;2023-02-23T04:03:26;65.95;;;33.05;;
75358;SDS011;64046;51.978;5.934;2023-02-23T04:06:10;65.55;;;32.08;;
75358;SDS011;64046;51.978;5.934;2023-02-23T04:08:53;63.67;;;31.95;;
75358;SDS011;64046;51.978;5.934;2023-02-23T04:11:40;66.70;;;30.88;;
75358;SDS011;64046;51.978;5.934;2023-02-23T04:14:28;64.63;;;32.45;;
75358;SDS011;64046;51.978;5.934;2023-02-23T04:16:59;60.30;;;29.02;;
75358;SDS011;64046;51.978;5.934;2023-02-23T04:19:31;70.53;;;33.35;;
75358;SDS011;64046;51.978;5.934;2023-02-23T04:22:00;58.50;;;31.02;;
75358;SDS011;64046;51.978;5.934;2023-02-23T04:24:29;67.57;;;34.25;;
75358;SDS011;64046;51.978;5.934;2023-02-23T04:26:59;61.35;;;31.00;;
75358;SDS011;64046;51.978;5.934;2023-02-23T04:29:28;65.28;;;31.50;;
75358;SDS011;64046;51.978;5.934;2023-02-23T04:31:57;61.65;;;29.15;;
75358;SDS011;64046;51.978;5.934;2023-02-23T04:34:26;52.92;;;28.00;;
75358;SDS011;64046;51.978;5.934;2023-02-23T04:36:58;71.63;;;34.17;;
75358;SDS011;64046;51.978;5.934;2023-02-23T04:39:27;67.57;;;33.15;;
75358;SDS011;64046;51.978;5.934;2023-02-23T04:41:56;68.93;;;34.70;;
75358;SDS011;64046;51.978;5.934;2023-02-23T04:44:26;74.35;;;34.40;;
75358;SDS011;64046;51.978;5.934;2023-02-23T04:46:55;64.78;;;32.00;;
75358;SDS011;64046;51.978;5.934;2023-02-23T04:49:24;61.20;;;31.25;;
75358;SDS011;64046;51.978;5.934;2023-02-23T04:51:53;63.60;;;31.30;;
75358;SDS011;64046;51.978;5.934;2023-02-23T04:54:25;71.28;;;34.58;;
75358;SDS011;64046;51.978;5.934;2023-02-23T04:56:54;70.68;;;35.78;;
75358;SDS011;64046;51.978;5.934;2023-02-23T04:59:23;65.50;;;32.50;;
75358;SDS011;64046;51.978;5.934;2023-02-23T05:01:53;57.05;;;28.13;;
75358;SDS011;64046;51.978;5.934;2023-02-23T05:04:22;71.88;;;32.72;;
75358;SDS011;64046;51.978;5.934;2023-02-23T05:06:52;64.55;;;32.88;;
75358;SDS011;64046;51.978;5.934;2023-02-23T05:09:21;55.85;;;27.50;;
75358;SDS011;64046;51.978;5.934;2023-02-23T05:11:53;62.63;;;29.20;;
75358;SDS011;64046;51.978;5.934;2023-02-23T05:14:22;63.55;;;32.35;;
75358;SDS011;64046;51.978;5.934;2023-02-23T05:16:52;60.50;;;30.83;;
75358;SDS011;64046;51.978;5.934;2023-02-23T05:19:21;60.30;;;30.83;;
75358;SDS011;64046;51.978;5.934;2023-02-23T05:21:50;62.97;;;31.73;;
75358;SDS011;64046;51.978;5.934;2023-02-23T05:24:19;62.33;;;30.80;;
75358;SDS011;64046;51.978;5.934;2023-02-23T05:26:48;59.10;;;29.65;;
75358;SDS011;64046;51.978;5.934;2023-02-23T05:29:21;69.38;;;33.60;;
75358;SDS011;64046;51.978;5.934;2023-02-23T05:31:50;62.15;;;29.95;;
75358;SDS011;64046;51.978;5.934;2023-02-23T05:34:19;66.60;;;33.83;;
75358;SDS011;64046;51.978;5.934;2023-02-23T05:36:48;63.05;;;30.10;;
75358;SDS011;64046;51.978;5.934;2023-02-23T05:39:19;71.95;;;32.78;;
75358;SDS011;64046;51.978;5.934;2023-02-23T05:41:48;74.55;;;35.15;;
75358;SDS011;64046;51.978;5.934;2023-02-23T05:44:17;67.88;;;30.30;;
75358;SDS011;64046;51.978;5.934;2023-02-23T05:46:49;59.60;;;29.48;;
75358;SDS011;64046;51.978;5.934;2023-02-23T05:49:18;65.53;;;30.95;;
75358;SDS011;64046;51.978;5.934;2023-02-23T05:51:47;59.40;;;29.02;;
75358;SDS011;64046;51.978;5.934;2023-02-23T05:54:16;72.90;;;35.42;;
75358;SDS011;64046;51.978;5.934;2023-02-23T05:56:45;62.25;;;29.92;;
75358;SDS011;64046;51.978;5.934;2023-02-23T05:59:14;63.05;;;29.42;;
75358;SDS011;64046;51.978;5.934;2023-02-23T06:01:44;63.53;;;29.80;;
75358;SDS011;64046;51.978;5.934;2023-02-23T06:04:16;68.93;;;32.75;;
75358;SDS011;64046;51.978;5.934;2023-02-23T06:06:48;70.55;;;33.00;;
75358;SDS011;64046;51.978;5.934;2023-02-23T06:09:17;77.45;;;34.35;;
75358;SDS011;64046;51.978;5.934;2023-02-23T06:11:46;67.72;;;32.28;;
75358;SDS011;64046;51.978;5.934;2023-02-23T06:14:16;61.15;;;28.65;;
75358;SDS011;64046;51.978;5.934;2023-02-23T06:16:45;72.03;;;33.20;;
75358;SDS011;64046;51.978;5.934;2023-02-23T06:19:17;78.65;;;34.72;;
75358;SDS011;64046;51.978;5.934;2023-02-23T06:21:46;62.63;;;30.58;;
75358;SDS011;64046;51.978;5.934;2023-02-23T06:24:17;62.42;;;29.75;;
75358;SDS011;64046;51.978;5.934;2023-02-23T06:26:48;64.70;;;32.92;;
75358;SDS011;64046;51.978;5.934;2023-02-23T06:29:17;66.70;;;32.35;;
75358;SDS011;64046;51.978;5.934;2023-02-23T06:31:47;58.92;;;28.65;;
75358;SDS011;64046;51.978;5.934;2023-02-23T06:34:18;70.63;;;33.25;;
75358;SDS011;64046;51.978;5.934;2023-02-23T06:36:48;67.38;;;31.10;;
75358;SDS011;64046;51.978;5.934;2023-02-23T06:39:17;55.65;;;28.67;;
75358;SDS011;64046;51.978;5.934;2023-02-23T06:41:46;67.80;;;31.27;;
75358;SDS011;64046;51.978;5.934;2023-02-23T06:44:15;67.65;;;30.88;;
75358;SDS011;64046;51.978;5.934;2023-02-23T06:46:44;67.40;;;33.17;;
75358;SDS011;64046;51.978;5.934;2023-02-23T06:49:14;65.57;;;31.33;;
75358;SDS011;64046;51.978;5.934;2023-02-23T06:51:45;61.30;;;28.15;;
75358;SDS011;64046;51.978;5.934;2023-02-23T06:54:15;64.03;;;31.45;;
75358;SDS011;64046;51.978;5.934;2023-02-23T06:56:44;61.55;;;26.80;;
75358;SDS011;64046;51.978;5.934;2023-02-23T06:59:13;68.85;;;32.30;;
75358;SDS011;64046;51.978;5.934;2023-02-23T07:01:42;62.80;;;28.67;;
75358;SDS011;64046;51.978;5.934;2023-02-23T07:04:11;68.57;;;30.90;;
75358;SDS011;64046;51.978;5.934;2023-02-23T07:06:41;64.32;;;31.83;;
75358;SDS011;64046;51.978;5.934;2023-02-23T07:09:13;65.30;;;30.45;;
75358;SDS011;64046;51.978;5.934;2023-02-23T07:11:42;69.13;;;32.20;;
75358;SDS011;64046;51.978;5.934;2023-02-23T07:14:12;73.28;;;33.55;;
75358;SDS011;64046;51.978;5.934;2023-02-23T07:16:41;62.92;;;32.15;;
75358;SDS011;64046;51.978;5.934;2023-02-23T07:19:10;63.13;;;31.15;;
75358;SDS011;64046;51.978;5.934;2023-02-23T07:21:40;60.55;;;27.65;;
75358;SDS011;64046;51.978;5.934;2023-02-23T07:24:09;59.13;;;29.00;;
75358;SDS011;64046;51.978;5.934;2023-02-23T07:26:40;62.42;;;31.00;;
75358;SDS011;64046;51.978;5.934;2023-02-23T07:29:12;53.88;;;27.42;;
75358;SDS011;64046;51.978;5.934;2023-02-23T07:31:41;62.88;;;29.98;;
75358;SDS011;64046;51.978;5.934;2023-02-23T07:34:10;56.55;;;27.67;;
75358;SDS011;64046;51.978;5.934;2023-02-23T07:36:39;63.40;;;29.50;;
75358;SDS011;64046;51.978;5.934;2023-02-23T07:39:08;46.75;;;25.23;;
75358;SDS011;64046;51.978;5.934;2023-02-23T07:41:37;57.88;;;29.25;;
75358;SDS011;64046;51.978;5.934;2023-02-23T07:44:18;53.47;;;27.23;;
75358;SDS011;64046;51.978;5.934;2023-02-23T07:46:48;56.10;;;28.52;;
75358;SDS011;64046;51.978;5.934;2023-02-23T07:49:17;54.08;;;27.50;;
75358;SDS011;64046;51.978;5.934;2023-02-23T07:51:46;55.00;;;26.95;;
75358;SDS011;64046;51.978;5.934;2023-02-23T07:54:15;50.13;;;24.70;;
75358;SDS011;64046;51.978;5.934;2023-02-23T07:56:49;53.25;;;26.58;;
75358;SDS011;64046;51.978;5.934;2023-02-23T07:59:18;55.22;;;26.33;;
75358;SDS011;64046;51.978;5.934;2023-02-23T08:01:47;47.35;;;23.95;;
75358;SDS011;64046;51.978;5.934;2023-02-23T08:04:17;51.50;;;24.17;;
75358;SDS011;64046;51.978;5.934;2023-02-23T08:06:46;47.60;;;24.08;;
75358;SDS011;64046;51.978;5.934;2023-02-23T08:09:15;53.67;;;25.88;;
75358;SDS011;64046;51.978;5.934;2023-02-23T08:11:44;54.65;;;27.52;;
75358;SDS011;64046;51.978;5.934;2023-02-23T08:14:16;48.20;;;23.73;;
75358;SDS011;64046;51.978;5.934;2023-02-23T08:16:48;56.70;;;27.52;;
75358;SDS011;64046;51.978;5.934;2023-02-23T08:19:17;52.95;;;24.75;;
75358;SDS011;64046;51.978;5.934;2023-02-23T08:21:47;44.45;;;21.92;;
75358;SDS011;64046;51.978;5.934;2023-02-23T08:24:16;47.30;;;24.20;;
75358;SDS011;64046;51.978;5.934;2023-02-23T08:26:46;48.20;;;23.80;;
75358;SDS011;64046;51.978;5.934;2023-02-23T08:29:17;55.58;;;29.15;;
75358;SDS011;64046;51.978;5.934;2023-02-23T08:31:47;49.63;;;24.50;;
75358;SDS011;64046;51.978;5.934;2023-02-23T08:34:16;53.22;;;27.20;;
75358;SDS011;64046;51.978;5.934;2023-02-23T08:36:45;62.50;;;28.58;;
75358;SDS011;64046;51.978;5.934;2023-02-23T08:39:14;46.15;;;22.95;;
75358;SDS011;64046;51.978;5.934;2023-02-23T08:41:44;42.95;;;22.80;;
75358;SDS011;64046;51.978;5.934;2023-02-23T08:44:13;49.15;;;25.13;;
75358;SDS011;64046;51.978;5.934;2023-02-23T08:46:44;53.42;;;26.88;;
75358;SDS011;64046;51.978;5.934;2023-02-23T08:49:14;48.25;;;25.27;;
75358;SDS011;64046;51.978;5.934;2023-02-23T08:51:43;53.85;;;25.45;;
75358;SDS011;64046;51.978;5.934;2023-02-23T08:54:12;54.78;;;25.73;;
75358;SDS011;64046;51.978;5.934;2023-02-23T08:56:42;52.53;;;25.55;;
75358;SDS011;64046;51.978;5.934;2023-02-23T08:59:12;58.15;;;27.27;;
75358;SDS011;64046;51.978;5.934;2023-02-23T09:01:45;57.10;;;28.90;;
75358;SDS011;64046;51.978;5.934;2023-02-23T09:04:14;57.55;;;26.17;;
75358;SDS011;64046;51.978;5.934;2023-02-23T09:06:44;49.47;;;25.02;;
75358;SDS011;64046;51.978;5.934;2023-02-23T09:09:15;55.83;;;26.45;;
75358;SDS011;64046;51.978;5.934;2023-02-23T09:11:44;56.33;;;28.20;;
75358;SDS011;64046;51.978;5.934;2023-02-23T09:14:13;53.55;;;27.10;;
75358;SDS011;64046;51.978;5.934;2023-02-23T09:16:45;52.40;;;26.60;;
75358;SDS011;64046;51.978;5.934;2023-02-23T09:19:14;58.20;;;29.08;;
75358;SDS011;64046;51.978;5.934;2023-02-23T09:21:44;60.35;;;28.45;;
75358;SDS011;64046;51.978;5.934;2023-02-23T09:24:14;55.40;;;27.15;;
75358;SDS011;64046;51.978;5.934;2023-02-23T09:26:43;49.30;;;24.58;;
75358;SDS011;64046;51.978;5.934;2023-02-23T09:29:12;55.95;;;26.17;;
75358;SDS011;64046;51.978;5.934;2023-02-23T09:31:44;49.83;;;25.05;;
75358;SDS011;64046;51.978;5.934;2023-02-23T09:34:15;52.85;;;26.13;;
75358;SDS011;64046;51.978;5.934;2023-02-23T09:36:45;45.53;;;23.77;;
75358;SDS011;64046;51.978;5.934;2023-02-23T09:39:14;52.75;;;26.08;;
75358;SDS011;64046;51.978;5.934;2023-02-23T09:41:51;59.38;;;27.40;;
75358;SDS011;64046;51.978;5.934;2023-02-23T09:44:36;54.15;;;26.35;;
75358;SDS011;64046;51.978;5.934;2023-02-23T09:47:19;50.58;;;25.95;;
75358;SDS011;64046;51.978;5.934;2023-02-23T09:49:57;56.70;;;27.50;;
75358;SDS011;64046;51.978;5.934;2023-02-23T09:52:33;51.50;;;25.33;;
75358;SDS011;64046;51.978;5.934;2023-02-23T09:55:08;51.53;;;24.58;;
75358;SDS011;64046;51.978;5.934;2023-02-23T09:57:38;52.97;;;25.98;;
75358;SDS011;64046;51.978;5.934;2023-02-23T10:00:12;57.17;;;28.33;;
75358;SDS011;64046;51.978;5.934;2023-02-23T10:03:05;54.13;;;26.10;;
75358;SDS011;64046;51.978;5.934;2023-02-23T10:05:47;50.60;;;25.23;;
75358;SDS011;64046;51.978;5.934;2023-02-23T10:08:30;51.72;;;24.25;;
75358;SDS011;64046;51.978;5.934;2023-02-23T10:11:13;51.08;;;24.20;;
75358;SDS011;64046;51.978;5.934;2023-02-23T10:13:55;56.30;;;27.90;;
75358;SDS011;64046;51.978;5.934;2023-02-23T10:16:35;39.80;;;20.65;;
75358;SDS011;64046;51.978;5.934;2023-02-23T10:19:17;47.53;;;24.20;;
75358;SDS011;64046;51.978;5.934;2023-02-23T10:21:53;44.55;;;22.35;;
75358;SDS011;64046;51.978;5.934;2023-02-23T10:24:26;54.00;;;26.50;;
75358;SDS011;64046;51.978;5.934;2023-02-23T10:27:01;50.42;;;25.00;;
75358;SDS011;64046;51.978;5.934;2023-02-23T10:29:36;51.88;;;24.83;;
75358;SDS011;64046;51.978;5.934;2023-02-23T10:32:13;56.25;;;26.10;;
75358;SDS011;64046;51.978;5.934;2023-02-23T10:34:51;53.60;;;26.15;;
75358;SDS011;64046;51.978;5.934;2023-02-23T10:37:22;50.55;;;26.17;;
75358;SDS011;64046;51.978;5.934;2023-02-23T10:39:52;59.10;;;27.48;;
75358;SDS011;64046;51.978;5.934;2023-02-23T10:42:22;52.58;;;24.63;;
75358;SDS011;64046;51.978;5.934;2023-02-23T10:44:55;57.28;;;27.48;;
75358;SDS011;64046;51.978;5.934;2023-02-23T10:47:25;58.63;;;28.02;;
75358;SDS011;64046;51.978;5.934;2023-02-23T10:50:00;57.75;;;27.38;;
75358;SDS011;64046;51.978;5.934;2023-02-23T10:52:32;53.03;;;25.90;;
75358;SDS011;64046;51.978;5.934;2023-02-23T10:55:09;52.92;;;25.88;;
75358;SDS011;64046;51.978;5.934;2023-02-23T10:58:01;59.15;;;27.98;;
75358;SDS011;64046;51.978;5.934;2023-02-23T11:00:49;54.35;;;26.83;;
75358;SDS011;64046;51.978;5.934;2023-02-23T11:03:22;51.20;;;25.90;;
75358;SDS011;64046;51.978;5.934;2023-02-23T11:05:56;54.65;;;25.55;;
75358;SDS011;64046;51.978;5.934;2023-02-23T11:08:26;48.17;;;23.63;;
75358;SDS011;64046;51.978;5.934;2023-02-23T11:10:59;48.08;;;23.40;;
75358;SDS011;64046;51.978;5.934;2023-02-23T11:13:35;46.42;;;24.08;;
75358;SDS011;64046;51.978;5.934;2023-02-23T11:16:08;45.13;;;22.23;;
75358;SDS011;64046;51.978;5.934;2023-02-23T11:18:41;55.45;;;26.65;;
75358;SDS011;64046;51.978;5.934;2023-02-23T11:21:26;47.85;;;22.27;;
75358;SDS011;64046;51.978;5.934;2023-02-23T11:24:00;43.42;;;22.52;;
75358;SDS011;64046;51.978;5.934;2023-02-23T11:26:37;53.70;;;24.90;;
75358;SDS011;64046;51.978;5.934;2023-02-23T11:29:13;50.45;;;24.20;;
75358;SDS011;64046;51.978;5.934;2023-02-23T11:31:46;42.10;;;21.25;;
75358;SDS011;64046;51.978;5.934;2023-02-23T11:34:21;45.42;;;22.25;;
75358;SDS011;64046;51.978;5.934;2023-02-23T11:37:02;47.45;;;22.25;;
75358;SDS011;64046;51.978;5.934;2023-02-23T11:39:33;51.05;;;23.38;;
75358;SDS011;64046;51.978;5.934;2023-02-23T11:42:05;51.15;;;23.48;;
75358;SDS011;64046;51.978;5.934;2023-02-23T11:44:41;47.17;;;21.88;;
75358;SDS011;64046;51.978;5.934;2023-02-23T11:47:13;41.65;;;21.48;;
75358;SDS011;64046;51.978;5.934;2023-02-23T11:49:44;43.67;;;20.17;;
75358;SDS011;64046;51.978;5.934;2023-02-23T11:52:18;42.53;;;20.60;;
75358;SDS011;64046;51.978;5.934;2023-02-23T11:54:51;40.72;;;20.65;;
75358;SDS011;64046;51.978;5.934;2023-02-23T11:57:24;41.97;;;19.52;;
75358;SDS011;64046;51.978;5.934;2023-02-23T11:59:57;44.28;;;20.55;;
75358;SDS011;64046;51.978;5.934;2023-02-23T12:02:43;45.40;;;21.10;;
75358;SDS011;64046;51.978;5.934;2023-02-23T12:05:19;42.92;;;19.83;;
75358;SDS011;64046;51.978;5.934;2023-02-23T12:07:55;39.25;;;18.00;;
75358;SDS011;64046;51.978;5.934;2023-02-23T12:10:31;40.42;;;18.80;;
75358;SDS011;64046;51.978;5.934;2023-02-23T12:13:12;41.90;;;19.33;;
75358;SDS011;64046;51.978;5.934;2023-02-23T12:15:55;35.53;;;18.27;;
75358;SDS011;64046;51.978;5.934;2023-02-23T12:18:38;36.47;;;18.38;;
75358;SDS011;64046;51.978;5.934;2023-02-23T12:21:16;43.95;;;19.15;;
75358;SDS011;64046;51.978;5.934;2023-02-23T12:23:57;42.10;;;18.45;;
75358;SDS011;64046;51.978;5.934;2023-02-23T12:26:33;42.92;;;19.77;;
75358;SDS011;64046;51.978;5.934;2023-02-23T12:29:15;56.67;;;23.08;;
75358;SDS011;64046;51.978;5.934;2023-02-23T12:31:50;39.38;;;18.42;;
75358;SDS011;64046;51.978;5.934;2023-02-23T12:34:29;39.85;;;18.42;;
75358;SDS011;64046;51.978;5.934;2023-02-23T12:37:08;37.75;;;18.30;;
75358;SDS011;64046;51.978;5.934;2023-02-23T12:39:57;38.80;;;18.10;;
75358;SDS011;64046;51.978;5.934;2023-02-23T12:42:34;48.13;;;20.15;;
75358;SDS011;64046;51.978;5.934;2023-02-23T12:45:12;33.30;;;16.27;;
75358;SDS011;64046;51.978;5.934;2023-02-23T12:47:50;37.40;;;17.70;;
75358;SDS011;64046;51.978;5.934;2023-02-23T12:50:24;33.45;;;15.48;;
75358;SDS011;64046;51.978;5.934;2023-02-23T12:52:57;34.58;;;16.63;;
75358;SDS011;64046;51.978;5.934;2023-02-23T12:55:41;31.85;;;15.77;;
75358;SDS011;64046;51.978;5.934;2023-02-23T12:58:18;31.85;;;14.15;;
75358;SDS011;64046;51.978;5.934;2023-02-23T13:00:54;33.08;;;16.63;;
75358;SDS011;64046;51.978;5.934;2023-02-23T13:03:43;30.55;;;14.00;;
75358;SDS011;64046;51.978;5.934;2023-02-23T13:06:25;31.10;;;13.75;;
75358;SDS011;64046;51.978;5.934;2023-02-23T13:09:03;28.40;;;11.93;;
75358;SDS011;64046;51.978;5.934;2023-02-23T13:11:49;25.63;;;11.55;;
75358;SDS011;64046;51.978;5.934;2023-02-23T13:14:28;26.63;;;11.90;;
75358;SDS011;64046;51.978;5.934;2023-02-23T13:17:05;21.15;;;11.05;;
75358;SDS011;64046;51.978;5.934;2023-02-23T13:19:46;18.40;;;9.52;;
75358;SDS011;64046;51.978;5.934;2023-02-23T13:22:23;22.20;;;10.75;;
75358;SDS011;64046;51.978;5.934;2023-02-23T13:24:57;17.98;;;9.60;;
75358;SDS011;64046;51.978;5.934;2023-02-23T13:27:33;22.88;;;11.23;;
75358;SDS011;64046;51.978;5.934;2023-02-23T13:30:07;21.15;;;9.80;;
75358;SDS011;64046;51.978;5.934;2023-02-23T13:32:38;18.75;;;9.40;;
75358;SDS011;64046;51.978;5.934;2023-02-23T13:35:09;22.13;;;10.15;;
75358;SDS011;64046;51.978;5.934;2023-02-23T13:37:43;25.20;;;10.05;;
75358;SDS011;64046;51.978;5.934;2023-02-23T13:40:22;18.73;;;9.05;;
75358;SDS011;64046;51.978;5.934;2023-02-23T13:43:04;17.23;;;7.90;;
75358;SDS011;64046;51.978;5.934;2023-02-23T13:45:50;19.35;;;8.85;;
75358;SDS011;64046;51.978;5.934;2023-02-23T13:48:31;14.38;;;7.05;;
75358;SDS011;64046;51.978;5.934;2023-02-23T13:51:12;15.50;;;7.82;;
75358;SDS011;64046;51.978;5.934;2023-02-23T13:53:47;16.77;;;7.82;;
75358;SDS011;64046;51.978;5.934;2023-02-23T13:56:28;13.77;;;7.65;;
75358;SDS011;64046;51.978;5.934;2023-02-23T13:59:03;14.15;;;7.38;;
75358;SDS011;64046;51.978;5.934;2023-02-23T14:01:37;14.55;;;6.50;;
75358;SDS011;64046;51.978;5.934;2023-02-23T14:04:12;11.75;;;6.95;;
75358;SDS011;64046;51.978;5.934;2023-02-23T14:06:49;15.85;;;7.57;;
75358;SDS011;64046;51.978;5.934;2023-02-23T14:09:22;13.10;;;7.65;;
75358;SDS011;64046;51.978;5.934;2023-02-23T14:12:00;14.20;;;8.05;;
75358;SDS011;64046;51.978;5.934;2023-02-23T14:14:42;18.63;;;9.13;;
75358;SDS011;64046;51.978;5.934;2023-02-23T14:23:16;17.88;;;9.75;;
75358;SDS011;64046;51.978;5.934;2023-02-23T14:26:13;20.90;;;10.20;;
75358;SDS011;64046;51.978;5.934;2023-02-23T14:32:16;21.80;;;10.23;;
75358;SDS011;64046;51.978;5.934;2023-02-23T14:34:57;18.15;;;9.73;;
75358;SDS011;64046;51.978;5.934;2023-02-23T14:37:28;20.75;;;9.45;;
75358;SDS011;64046;51.978;5.934;2023-02-23T14:40:10;20.52;;;9.20;;
75358;SDS011;64046;51.978;5.934;2023-02-23T14:42:45;16.65;;;8.57;;
75358;SDS011;64046;51.978;5.934;2023-02-23T14:45:18;15.50;;;8.88;;
75358;SDS011;64046;51.978;5.934;2023-02-23T14:47:54;22.30;;;9.25;;
75358;SDS011;64046;51.978;5.934;2023-02-23T14:50:27;18.48;;;9.43;;
75358;SDS011;64046;51.978;5.934;2023-02-23T14:52:59;23.58;;;11.07;;
75358;SDS011;64046;51.978;5.934;2023-02-23T14:55:30;20.77;;;10.35;;
75358;SDS011;64046;51.978;5.934;2023-02-23T14:58:01;18.50;;;9.98;;
75358;SDS011;64046;51.978;5.934;2023-02-23T15:00:32;20.55;;;9.45;;
75358;SDS011;64046;51.978;5.934;2023-02-23T15:03:12;19.48;;;9.65;;
75358;SDS011;64046;51.978;5.934;2023-02-23T15:05:42;18.90;;;8.45;;
75358;SDS011;64046;51.978;5.934;2023-02-23T15:08:16;21.45;;;10.15;;
75358;SDS011;64046;51.978;5.934;2023-02-23T15:10:49;21.05;;;10.90;;
75358;SDS011;64046;51.978;5.934;2023-02-23T15:13:27;21.90;;;9.55;;
75358;SDS011;64046;51.978;5.934;2023-02-23T15:16:00;24.30;;;11.30;;
75358;SDS011;64046;51.978;5.934;2023-02-23T15:18:35;21.25;;;10.23;;
75358;SDS011;64046;51.978;5.934;2023-02-23T15:21:08;24.13;;;11.35;;